This is the latest recevied weather packets stored in our database for station/object AD9CI-15. If no packets are shown the sender has not sent any weather packets the latest 10 day(s).
| Time | Temp. | Humidity | Pressure | Rain* | Wind** | Luminosity | Snow |
|---|---|---|---|---|---|---|---|
| 1777727096 | 5.56° C | 65% | 1019.3 hPa | - | - | - | - |
| 1777727062 | 5.56° C | 65% | 1019.3 hPa | - | - | - | - |
| 1777723503 | 2.78° C | 71% | 1019.1 hPa | - | - | - | - |
| 1777723462 | 2.78° C | 71% | 1019.1 hPa | - | - | - | - |
| 1777721543 | 2.22° C | 70% | 1018.9 hPa | - | - | - | - |
| 1777719863 | 1.67° C | 69% | 1018.8 hPa | - | - | - | - |
| 1777716263 | 1.67° C | 66% | 1018.7 hPa | - | - | - | - |
| 1777714343 | 1.67° C | 66% | 1018.7 hPa | - | - | - | - |
| 1777712663 | 1.67° C | 64% | 1018.6 hPa | - | - | - | - |
| 1777710743 | 2.22° C | 63% | 1018.6 hPa | - | - | - | - |
| 1777709062 | 2.22° C | 63% | 1018.5 hPa | - | - | - | - |
| 1777707143 | 2.78° C | 62% | 1018.7 hPa | - | - | - | - |
| 1777705462 | 2.78° C | 61% | 1018.7 hPa | - | - | - | - |
| 1777703542 | 3.33° C | 60% | 1018.9 hPa | - | - | - | - |
| 1777701862 | 3.33° C | 59% | 1019.1 hPa | - | - | - | - |
| 1777699944 | 3.33° C | 58% | 1019 hPa | - | - | - | - |
| 1777698262 | 3.33° C | 58% | 1019 hPa | - | - | - | - |
| 1777696342 | 3.89° C | 57% | 1019 hPa | - | - | - | - |
| 1777694662 | 3.89° C | 59% | 1018.9 hPa | - | - | - | - |
| 1777692742 | 3.89° C | 58% | 1018.9 hPa | - | - | - | - |
| 1777691062 | 3.89° C | 57% | 1018.7 hPa | - | - | - | - |
| 1777689143 | 4.44° C | 56% | 1018.6 hPa | - | - | - | - |
| 1777687463 | 5° C | 54% | 1018.5 hPa | - | - | - | - |
| 1777685542 | 5° C | 53% | 1018.4 hPa | - | - | - | - |
| 1777683862 | 5° C | 53% | 1018.2 hPa | - | - | - | - |
* Rain since midnight (hover to see other rain measurements)
** Current wind speed in m/s (hover to see current wind gust speed)